createdAt,value
2023-03-28T00:01:09.379Z,98861.09
2023-03-28T00:03:40.269Z,98868.41
2023-03-28T00:06:16.602Z,98870.72
2023-03-28T00:08:46.233Z,98872.87
2023-03-28T00:11:20.455Z,98877.41
2023-03-28T00:13:53.795Z,98886.53
2023-03-28T00:16:21.909Z,98883.75
2023-03-28T00:18:51.169Z,98882.53
2023-03-28T00:21:23.914Z,98881.84
2023-03-28T00:23:54.033Z,98888.56
2023-03-28T00:26:25.043Z,98891.88
2023-03-28T00:28:54.908Z,98890.19
2023-03-28T00:31:24.190Z,98890.41
2023-03-28T00:33:52.894Z,98890.16
2023-03-28T00:36:23.214Z,98891.03
2023-03-28T00:38:54.598Z,98891.19
2023-03-28T00:41:24.119Z,98890.53
2023-03-28T00:43:55.085Z,98896.59
2023-03-28T00:46:30.770Z,98904.06
2023-03-28T00:49:21.597Z,98907.66
2023-03-28T00:52:03.699Z,98911.56
2023-03-28T00:54:34.705Z,98924.56
2023-03-28T00:57:03.258Z,98922.72
2023-03-28T00:59:33.728Z,98932.06
2023-03-28T01:02:02.109Z,98940.38
2023-03-28T01:04:57.961Z,98937.47
2023-03-28T01:07:27.131Z,98934.75
2023-03-28T01:09:55.931Z,98950.97
2023-03-28T01:12:24.121Z,98945.94
2023-03-28T01:14:52.674Z,98952.81
2023-03-28T01:17:21.371Z,98947.53
2023-03-28T01:19:59.773Z,98950.06
2023-03-28T01:22:40.625Z,98946.78
2023-03-28T01:25:35.802Z,98953.81
2023-03-28T01:28:22.750Z,98955.00
2023-03-28T01:31:28.174Z,98953.31
2023-03-28T01:34:27.808Z,98963.19
2023-03-28T01:37:05.794Z,98964.59
2023-03-28T01:39:41.172Z,98976.62
2023-03-28T01:42:27.637Z,98985.28
2023-03-28T01:45:19.337Z,98979.34
2023-03-28T01:47:55.511Z,98986.69
2023-03-28T01:50:31.484Z,98992.31
2023-03-28T01:53:37.969Z,98998.75
2023-03-28T01:56:31.115Z,99000.88
2023-03-28T01:59:18.124Z,98995.16
2023-03-28T02:02:20.065Z,99002.94
2023-03-28T02:04:50.302Z,99007.94
2023-03-28T02:07:20.965Z,99013.09
2023-03-28T02:09:56.654Z,99022.94
2023-03-28T02:12:28.966Z,99029.00
2023-03-28T02:14:59.001Z,99035.19
2023-03-28T02:17:29.240Z,99031.00
2023-03-28T02:20:09.191Z,99036.00
2023-03-28T02:22:45.813Z,99032.91
2023-03-28T02:25:16.316Z,99039.25
2023-03-28T02:27:48.264Z,99044.62
2023-03-28T02:30:17.002Z,99045.94
2023-03-28T02:32:49.835Z,99045.81
2023-03-28T02:35:24.455Z,99035.69
2023-03-28T02:38:22.666Z,99057.72
2023-03-28T02:41:09.861Z,99057.44
2023-03-28T02:43:42.436Z,99060.72
2023-03-28T02:46:31.938Z,99061.69
2023-03-28T02:49:12.622Z,99073.78
2023-03-28T02:51:51.507Z,99072.63
2023-03-28T02:54:36.023Z,99081.66
2023-03-28T02:57:13.602Z,99095.09
2023-03-28T03:00:11.730Z,99092.66
2023-03-28T03:02:43.995Z,99096.75
2023-03-28T03:05:12.329Z,99093.09
2023-03-28T03:07:40.619Z,99098.81
2023-03-28T03:10:10.787Z,99102.00
2023-03-28T03:12:39.377Z,99110.31
2023-03-28T03:15:08.189Z,99122.53
2023-03-28T03:17:39.837Z,99118.91
2023-03-28T03:20:08.626Z,99115.47
2023-03-28T03:22:37.188Z,99109.50
2023-03-28T03:25:09.394Z,99126.31
2023-03-28T03:27:39.829Z,99136.88
2023-03-28T03:30:08.827Z,99128.12
2023-03-28T03:32:44.364Z,99127.97
2023-03-28T03:35:12.845Z,99136.94
2023-03-28T03:37:40.802Z,99132.78
2023-03-28T03:40:10.052Z,99129.94
2023-03-28T03:42:39.509Z,99139.19
2023-03-28T03:45:08.167Z,99134.81
2023-03-28T03:47:36.843Z,99139.41
2023-03-28T03:50:05.853Z,99150.84
2023-03-28T03:52:34.044Z,99147.66
2023-03-28T03:55:02.336Z,99151.62
2023-03-28T03:57:31.522Z,99158.53
2023-03-28T04:00:00.155Z,99154.87
2023-03-28T04:02:28.802Z,99165.25
2023-03-28T04:04:57.658Z,99166.06
2023-03-28T04:07:25.669Z,99173.38
2023-03-28T04:09:54.104Z,99176.91
2023-03-28T04:12:25.638Z,99180.72
2023-03-28T04:14:55.002Z,99182.25
2023-03-28T04:17:30.048Z,99190.09
2023-03-28T04:19:58.542Z,99192.22
2023-03-28T04:22:30.110Z,99198.75
2023-03-28T04:24:58.249Z,99199.66
2023-03-28T04:27:32.570Z,99192.91
2023-03-28T04:30:01.978Z,99201.53
2023-03-28T04:32:36.079Z,99204.22
2023-03-28T04:35:04.671Z,99209.69
2023-03-28T04:37:33.611Z,99217.44
2023-03-28T04:40:03.167Z,99215.75
2023-03-28T04:42:33.206Z,99218.13
2023-03-28T04:45:02.306Z,99223.41
2023-03-28T04:47:30.268Z,99220.56
2023-03-28T04:49:58.724Z,99229.78
2023-03-28T04:52:27.318Z,99228.16
2023-03-28T04:54:55.604Z,99227.88
2023-03-28T04:57:23.784Z,99231.09
2023-03-28T04:59:52.480Z,99239.84
2023-03-28T05:02:21.286Z,99236.53
2023-03-28T05:04:50.984Z,99241.44
2023-03-28T05:07:19.423Z,99240.44
2023-03-28T05:09:48.071Z,99245.91
2023-03-28T05:12:16.355Z,99252.59
2023-03-28T05:14:48.967Z,99253.87
2023-03-28T05:17:17.340Z,99247.94
2023-03-28T05:19:45.551Z,99245.38
2023-03-28T05:22:13.984Z,99248.78
2023-03-28T05:24:42.280Z,99249.72
2023-03-28T05:27:11.834Z,99258.81
2023-03-28T05:29:40.320Z,99258.25
2023-03-28T05:32:09.384Z,99266.22
2023-03-28T05:34:37.485Z,99268.97
2023-03-28T05:37:05.846Z,99268.91
2023-03-28T05:39:34.021Z,99273.34
2023-03-28T05:42:02.561Z,99269.06
2023-03-28T05:44:31.042Z,99277.81
2023-03-28T05:46:59.891Z,99271.47
2023-03-28T05:49:27.918Z,99277.97
2023-03-28T05:51:56.321Z,99283.22
2023-03-28T05:54:24.352Z,99287.31
2023-03-28T05:56:52.945Z,99285.09
2023-03-28T05:59:25.237Z,99285.88
2023-03-28T06:01:53.286Z,99290.78
2023-03-28T06:04:22.814Z,99296.28
2023-03-28T06:06:51.896Z,99292.50
2023-03-28T06:09:20.189Z,99305.13
2023-03-28T06:11:48.587Z,99311.56
2023-03-28T06:14:17.009Z,99312.91
2023-03-28T06:16:45.189Z,99313.88
2023-03-28T06:19:18.416Z,99316.00
2023-03-28T06:21:49.239Z,99326.97
2023-03-28T06:24:17.633Z,99329.44
2023-03-28T06:26:46.556Z,99333.03
2023-03-28T06:29:16.309Z,99338.63
2023-03-28T06:31:44.816Z,99338.63
2023-03-28T06:34:13.381Z,99340.81
2023-03-28T06:36:42.364Z,99353.22
2023-03-28T06:39:11.581Z,99353.66
2023-03-28T06:41:39.749Z,99358.31
2023-03-28T06:44:07.830Z,99365.81
2023-03-28T06:46:37.443Z,99361.03
2023-03-28T06:49:06.948Z,99371.88
2023-03-28T06:51:36.779Z,99373.66
2023-03-28T06:54:05.524Z,99376.37
2023-03-28T06:56:35.276Z,99372.72
2023-03-28T06:59:03.313Z,99383.84
2023-03-28T07:01:32.206Z,99371.91
2023-03-28T07:04:02.461Z,99379.94
2023-03-28T07:06:30.878Z,99374.13
2023-03-28T07:08:59.658Z,99371.75
2023-03-28T07:11:30.180Z,99378.00
2023-03-28T07:13:58.554Z,99376.81
2023-03-28T07:16:26.869Z,99386.97
2023-03-28T07:18:55.099Z,99384.00
2023-03-28T07:21:23.383Z,99383.03
2023-03-28T07:23:54.590Z,99396.41
2023-03-28T07:26:22.941Z,99396.44
2023-03-28T07:28:54.006Z,99400.22
2023-03-28T07:31:22.206Z,99407.16
2023-03-28T07:33:52.307Z,99402.19
2023-03-28T07:36:28.559Z,99408.00
2023-03-28T07:38:58.169Z,99408.63
2023-03-28T07:41:26.841Z,99393.63
2023-03-28T07:43:54.982Z,99406.25
2023-03-28T07:46:24.192Z,99415.41
2023-03-28T07:48:52.826Z,99385.38
2023-03-28T07:51:20.893Z,99400.97
2023-03-28T07:53:48.954Z,99402.41
2023-03-28T07:56:17.520Z,99404.16
2023-03-28T07:58:48.353Z,99400.09
2023-03-28T08:01:19.033Z,99392.50
2023-03-28T08:03:47.576Z,99398.81
2023-03-28T08:06:31.606Z,99397.28
2023-03-28T08:09:01.416Z,99398.94
2023-03-28T08:11:29.788Z,99394.97
2023-03-28T08:13:59.072Z,99399.09
2023-03-28T08:16:30.069Z,99396.03
2023-03-28T08:19:09.875Z,99400.91
2023-03-28T08:21:40.024Z,99405.19
2023-03-28T08:24:09.914Z,99395.28
2023-03-28T08:26:41.435Z,99411.38
2023-03-28T08:29:09.830Z,99390.41
2023-03-28T08:31:39.180Z,99392.00
2023-03-28T08:34:07.333Z,99400.09
2023-03-28T08:36:36.178Z,99387.34
2023-03-28T08:39:05.645Z,99386.47
2023-03-28T08:41:49.137Z,99387.59
2023-03-28T08:44:42.391Z,99387.62
2023-03-28T08:47:13.573Z,99391.06
2023-03-28T08:49:47.614Z,99388.44
2023-03-28T08:52:18.604Z,99376.41
2023-03-28T08:55:01.501Z,99372.06
2023-03-28T08:57:34.285Z,99374.44
2023-03-28T09:00:14.909Z,99375.28
2023-03-28T09:02:44.036Z,99368.81
2023-03-28T09:05:23.148Z,99388.03
2023-03-28T09:08:19.835Z,99388.31
2023-03-28T09:11:00.065Z,99387.38
2023-03-28T09:13:58.723Z,99390.53
2023-03-28T09:16:58.104Z,99391.87
2023-03-28T09:19:48.796Z,99384.34
2023-03-28T09:22:32.506Z,99393.53
2023-03-28T09:25:07.303Z,99395.41
2023-03-28T09:27:40.743Z,99398.78
2023-03-28T09:30:27.000Z,99412.19
2023-03-28T09:33:00.020Z,99435.56
2023-03-28T09:35:30.444Z,99434.75
2023-03-28T09:38:04.427Z,99435.34
2023-03-28T09:40:34.627Z,99435.38
2023-03-28T09:43:24.802Z,99439.41
2023-03-28T09:46:03.374Z,99437.41
2023-03-28T09:48:37.137Z,99420.13
2023-03-28T09:51:07.835Z,99406.59
2023-03-28T09:53:39.429Z,99414.37
2023-03-28T09:56:19.076Z,99384.94
2023-03-28T09:58:53.426Z,99392.72
2023-03-28T10:01:33.188Z,99380.59
2023-03-28T10:04:28.503Z,99391.94
2023-03-28T10:07:18.301Z,99381.56
2023-03-28T10:09:56.052Z,99391.06
2023-03-28T10:12:40.542Z,99382.16
2023-03-28T10:15:36.097Z,99378.75
2023-03-28T10:18:21.503Z,99386.75
2023-03-28T10:21:02.837Z,99383.81
2023-03-28T10:23:32.524Z,99383.66
2023-03-28T10:26:03.256Z,99382.50
2023-03-28T10:28:35.542Z,99385.59
2023-03-28T10:31:05.204Z,99395.47
2023-03-28T10:33:37.213Z,99398.81
2023-03-28T10:36:13.050Z,99397.81
2023-03-28T10:38:48.384Z,99398.53
2023-03-28T10:41:26.301Z,99401.75
2023-03-28T10:43:58.254Z,99398.53
2023-03-28T10:46:36.627Z,99410.78
2023-03-28T10:49:12.434Z,99402.97
2023-03-28T10:51:43.625Z,99394.56
2023-03-28T10:54:17.913Z,99385.34
2023-03-28T10:56:56.345Z,99389.78
2023-03-28T10:59:43.265Z,99382.38
2023-03-28T11:02:27.602Z,99378.19
2023-03-28T11:05:02.418Z,99378.84
2023-03-28T11:07:35.543Z,99387.62
2023-03-28T11:10:10.226Z,99387.75
2023-03-28T11:13:07.615Z,99376.81
2023-03-28T11:16:00.638Z,99388.75
2023-03-28T11:18:49.485Z,99387.31
2023-03-28T11:21:41.702Z,99391.06
2023-03-28T11:24:24.495Z,99385.34
2023-03-28T11:27:12.636Z,99386.53
2023-03-28T11:29:49.730Z,99383.47
2023-03-28T11:32:45.224Z,99378.75
2023-03-28T11:35:22.672Z,99398.19
2023-03-28T11:38:04.738Z,99392.31
2023-03-28T11:40:54.606Z,99406.63
2023-03-28T11:43:35.825Z,99403.16
2023-03-28T11:46:30.508Z,99412.41
2023-03-28T11:49:11.003Z,99402.22
2023-03-28T11:51:47.534Z,99394.84
2023-03-28T11:54:20.900Z,99396.47
2023-03-28T11:56:54.539Z,99395.22
2023-03-28T11:59:28.590Z,99404.94
2023-03-28T12:02:23.787Z,99387.59
2023-03-28T12:05:26.532Z,99403.09
2023-03-28T12:08:18.391Z,99399.56
2023-03-28T12:10:50.710Z,99398.66
2023-03-28T12:13:28.085Z,99378.72
2023-03-28T12:15:59.531Z,99382.97
2023-03-28T12:18:41.924Z,99384.50
2023-03-28T12:21:49.596Z,99390.87
2023-03-28T12:24:52.850Z,99372.62
2023-03-28T12:27:29.903Z,99391.63
2023-03-28T12:30:07.813Z,99388.16
2023-03-28T12:33:14.601Z,99392.38
2023-03-28T12:35:59.780Z,99379.78
2023-03-28T12:38:43.093Z,99387.84
2023-03-28T12:41:21.385Z,99379.28
2023-03-28T12:43:57.049Z,99373.25
2023-03-28T12:47:09.438Z,99388.94
2023-03-28T12:49:43.656Z,99401.34
2023-03-28T12:52:18.870Z,99401.16
2023-03-28T12:55:01.105Z,99386.56
2023-03-28T12:57:48.935Z,99402.19
2023-03-28T13:00:33.819Z,99417.91
2023-03-28T13:03:31.295Z,99402.31
2023-03-28T13:06:15.169Z,99407.50
2023-03-28T13:08:58.232Z,99409.97
2023-03-28T13:11:54.482Z,99414.44
2023-03-28T13:14:41.498Z,99423.06
2023-03-28T13:17:24.836Z,99432.59
2023-03-28T13:20:10.872Z,99448.97
2023-03-28T13:23:04.926Z,99462.81
2023-03-28T13:25:35.320Z,99486.94
2023-03-28T13:28:13.112Z,99490.31
2023-03-28T13:30:43.515Z,99502.53
2023-03-28T13:33:31.453Z,99516.09
2023-03-28T13:36:00.835Z,99517.88
2023-03-28T13:38:29.614Z,99508.56
2023-03-28T13:41:06.647Z,99524.94
2023-03-28T13:43:35.541Z,99510.09
2023-03-28T13:46:19.733Z,99517.12
2023-03-28T13:49:21.496Z,99505.94
2023-03-28T13:51:58.570Z,99506.91
2023-03-28T13:54:32.441Z,99512.87
2023-03-28T13:57:04.229Z,99516.44
2023-03-28T13:59:52.214Z,99511.34
2023-03-28T14:02:35.306Z,99512.13
2023-03-28T14:05:28.357Z,99515.41
2023-03-28T14:08:19.791Z,99522.22
2023-03-28T14:10:55.990Z,99530.78
2023-03-28T14:13:26.359Z,99506.72
2023-03-28T14:15:57.787Z,99521.25
2023-03-28T14:18:46.380Z,99523.72
2023-03-28T14:21:15.279Z,99510.94
2023-03-28T14:23:56.256Z,99523.09
2023-03-28T14:26:28.875Z,99514.25
2023-03-28T14:29:11.253Z,99540.88
2023-03-28T14:31:43.733Z,99544.25
2023-03-28T14:34:35.592Z,99548.63
2023-03-28T14:37:11.693Z,99529.69
2023-03-28T14:39:42.744Z,99528.09
2023-03-28T14:42:17.201Z,99528.06
2023-03-28T14:44:47.841Z,99545.28
2023-03-28T14:47:32.549Z,99540.91
2023-03-28T14:50:01.574Z,99546.22
2023-03-28T14:52:35.950Z,99549.22
2023-03-28T14:55:04.999Z,99572.97
2023-03-28T14:57:37.719Z,99584.38
2023-03-28T15:00:13.053Z,99618.75
2023-03-28T15:02:42.417Z,99635.25
2023-03-28T15:05:14.181Z,99638.56
2023-03-28T15:07:42.846Z,99630.28
2023-03-28T15:10:13.549Z,99606.84
2023-03-28T15:12:52.793Z,99618.72
2023-03-28T15:15:24.336Z,99612.31
2023-03-28T15:17:52.821Z,99622.19
2023-03-28T15:20:28.241Z,99611.69
2023-03-28T15:22:57.453Z,99637.53
2023-03-28T15:25:27.344Z,99654.22
2023-03-28T15:28:01.637Z,99647.44
2023-03-28T15:30:34.138Z,99650.91
2023-03-28T15:33:04.329Z,99651.94
2023-03-28T15:35:36.800Z,99634.38
2023-03-28T15:38:27.386Z,99638.28
2023-03-28T15:41:19.891Z,99640.28
2023-03-28T15:43:59.307Z,99632.53
2023-03-28T15:46:32.393Z,99638.88
2023-03-28T15:49:01.679Z,99633.44
2023-03-28T15:51:30.891Z,99630.97
2023-03-28T15:54:01.817Z,99628.22
2023-03-28T15:56:32.207Z,99640.72
2023-03-28T15:59:10.321Z,99654.72
2023-03-28T16:01:38.839Z,99659.50
2023-03-28T16:04:29.052Z,99677.78
2023-03-28T16:07:17.332Z,99678.56
2023-03-28T16:09:46.833Z,99679.06
2023-03-28T16:12:15.225Z,99684.41
2023-03-28T16:15:04.635Z,99680.34
2023-03-28T16:17:34.548Z,99683.59
2023-03-28T16:20:06.862Z,99682.34
2023-03-28T16:22:35.917Z,99677.00
2023-03-28T16:25:03.866Z,99680.31
2023-03-28T16:27:31.911Z,99678.66
2023-03-28T16:30:02.203Z,99690.97
2023-03-28T16:32:31.548Z,99694.13
2023-03-28T16:34:59.476Z,99705.28
2023-03-28T16:37:29.750Z,99705.69
2023-03-28T16:39:58.351Z,99712.47
2023-03-28T16:42:27.816Z,99710.75
2023-03-28T16:44:56.184Z,99712.47
2023-03-28T16:47:24.148Z,99725.94
2023-03-28T16:49:52.129Z,99721.81
2023-03-28T16:52:20.520Z,99731.78
2023-03-28T16:54:48.791Z,99725.38
2023-03-28T16:57:16.846Z,99729.53
2023-03-28T16:59:45.157Z,99748.16
2023-03-28T17:02:13.224Z,99748.00
2023-03-28T17:04:41.513Z,99750.28
2023-03-28T17:07:09.880Z,99743.50
2023-03-28T17:09:37.756Z,99742.63
2023-03-28T17:12:05.861Z,99755.72
2023-03-28T17:14:34.132Z,99758.59
2023-03-28T17:17:02.385Z,99759.03
2023-03-28T17:19:30.761Z,99757.78
2023-03-28T17:21:59.131Z,99766.66
2023-03-28T17:24:28.272Z,99782.47
2023-03-28T17:26:56.876Z,99779.09
2023-03-28T17:29:25.825Z,99784.44
2023-03-28T17:31:54.574Z,99787.03
2023-03-28T17:34:22.795Z,99796.34
2023-03-28T17:36:53.884Z,99794.78
2023-03-28T17:39:23.273Z,99793.41
2023-03-28T17:41:51.272Z,99793.75
2023-03-28T17:44:19.642Z,99800.69
2023-03-28T17:46:48.036Z,99791.97
2023-03-28T17:49:18.168Z,99803.63
2023-03-28T17:51:46.806Z,99811.03
2023-03-28T17:54:15.189Z,99816.59
2023-03-28T17:56:43.522Z,99822.03
2023-03-28T17:59:12.726Z,99826.22
2023-03-28T18:01:41.170Z,99828.63
2023-03-28T18:04:09.511Z,99825.66
2023-03-28T18:06:38.862Z,99828.28
2023-03-28T18:09:07.010Z,99834.09
2023-03-28T18:11:36.029Z,99840.50
2023-03-28T18:14:04.010Z,99847.03
2023-03-28T18:16:32.328Z,99848.56
2023-03-28T18:19:00.742Z,99843.41
2023-03-28T18:21:28.660Z,99853.19
2023-03-28T18:23:56.969Z,99847.66
2023-03-28T18:26:28.909Z,99856.75
2023-03-28T18:28:56.861Z,99861.78
2023-03-28T18:31:28.217Z,99859.97
2023-03-28T18:33:58.302Z,99863.50
2023-03-28T18:36:26.865Z,99862.69
2023-03-28T18:38:56.345Z,99865.97
2023-03-28T18:41:24.851Z,99869.69
2023-03-28T18:43:53.400Z,99874.56
2023-03-28T18:46:21.556Z,99874.47
2023-03-28T18:48:49.969Z,99877.66
2023-03-28T18:51:18.604Z,99878.56
2023-03-28T18:53:46.561Z,99876.75
2023-03-28T18:56:14.480Z,99874.00
2023-03-28T18:58:44.063Z,99873.94
2023-03-28T19:01:12.865Z,99875.03
2023-03-28T19:03:42.620Z,99880.06
2023-03-28T19:06:12.686Z,99883.50
2023-03-28T19:08:40.738Z,99883.75
2023-03-28T19:11:12.504Z,99880.44
2023-03-28T19:13:41.709Z,99879.31
2023-03-28T19:16:14.571Z,99878.41
2023-03-28T19:18:44.655Z,99876.81
2023-03-28T19:21:13.242Z,99885.78
2023-03-28T19:23:41.413Z,99882.00
2023-03-28T19:26:11.902Z,99883.75
2023-03-28T19:28:39.884Z,99881.78
2023-03-28T19:31:10.024Z,99893.06
2023-03-28T19:33:38.899Z,99889.84
2023-03-28T19:36:07.755Z,99890.19
2023-03-28T19:38:36.892Z,99895.09
2023-03-28T19:41:12.688Z,99889.75
2023-03-28T19:43:42.485Z,99892.00
2023-03-28T19:46:14.364Z,99887.37
2023-03-28T19:48:42.581Z,99885.63
2023-03-28T19:51:10.933Z,99885.81
2023-03-28T19:53:40.431Z,99889.03
2023-03-28T19:56:10.530Z,99892.38
2023-03-28T19:58:38.844Z,99889.22
2023-03-28T20:01:07.360Z,99883.84
2023-03-28T20:03:35.855Z,99883.75
2023-03-28T20:06:13.779Z,99878.13
2023-03-28T20:08:42.930Z,99883.81
2023-03-28T20:11:12.398Z,99882.44
2023-03-28T20:13:40.892Z,99882.34
2023-03-28T20:16:11.082Z,99870.78
2023-03-28T20:18:39.586Z,99868.16
2023-03-28T20:21:10.883Z,99865.13
2023-03-28T20:23:39.698Z,99870.78
2023-03-28T20:26:22.183Z,99865.66
2023-03-28T20:28:59.641Z,99867.66
2023-03-28T20:31:28.361Z,99865.59
2023-03-28T20:33:56.904Z,99874.62
2023-03-28T20:36:24.998Z,99869.78
2023-03-28T20:38:55.093Z,99870.78
2023-03-28T20:41:24.344Z,99870.53
2023-03-28T20:43:53.417Z,99865.97
2023-03-28T20:46:22.312Z,99881.72
2023-03-28T20:48:57.633Z,99877.63
2023-03-28T20:51:29.650Z,99877.59
2023-03-28T20:54:02.010Z,99877.28
2023-03-28T20:56:31.475Z,99889.09
2023-03-28T20:58:59.952Z,99879.19
2023-03-28T21:01:30.588Z,99883.28
2023-03-28T21:04:00.705Z,99874.78
2023-03-28T21:06:30.731Z,99884.38
2023-03-28T21:09:02.889Z,99893.53
2023-03-28T21:11:33.216Z,99887.00
2023-03-28T21:14:02.262Z,99889.34
2023-03-28T21:16:31.726Z,99886.37
2023-03-28T21:19:01.328Z,99891.16
2023-03-28T21:21:30.085Z,99887.69
2023-03-28T21:23:57.979Z,99884.53
2023-03-28T21:26:26.418Z,99882.13
2023-03-28T21:28:54.824Z,99891.38
2023-03-28T21:31:28.384Z,99893.97
2023-03-28T21:33:58.302Z,99890.50
2023-03-28T21:36:27.347Z,99901.34
2023-03-28T21:38:56.280Z,99904.84
2023-03-28T21:41:25.327Z,99903.53
2023-03-28T21:43:54.827Z,99910.97
2023-03-28T21:46:22.984Z,99919.72
2023-03-28T21:48:51.547Z,99916.84
2023-03-28T21:51:19.725Z,99912.69
2023-03-28T21:53:47.570Z,99915.19
2023-03-28T21:56:16.907Z,99912.69
2023-03-28T21:58:44.983Z,99909.09
2023-03-28T22:01:14.481Z,99914.63
2023-03-28T22:03:43.016Z,99912.31
2023-03-28T22:06:10.996Z,99910.72
2023-03-28T22:08:43.148Z,99920.97
2023-03-28T22:11:14.635Z,99928.81
2023-03-28T22:13:45.280Z,99930.66
2023-03-28T22:16:15.716Z,99937.56
2023-03-28T22:18:50.340Z,99948.84
2023-03-28T22:21:18.808Z,99948.78
2023-03-28T22:23:47.840Z,99948.59
2023-03-28T22:26:16.243Z,99939.19
2023-03-28T22:28:44.768Z,99939.47
2023-03-28T22:31:13.084Z,99951.47
2023-03-28T22:33:41.026Z,99959.66
2023-03-28T22:36:10.089Z,99959.72
2023-03-28T22:38:38.300Z,99949.00
2023-03-28T22:41:07.896Z,99947.87
2023-03-28T22:43:36.621Z,99953.19
2023-03-28T22:46:05.861Z,99952.44
2023-03-28T22:48:33.859Z,99946.06
2023-03-28T22:51:02.421Z,99940.59
2023-03-28T22:53:30.750Z,99941.44
2023-03-28T22:55:58.969Z,99934.63
2023-03-28T22:58:27.460Z,99941.97
2023-03-28T23:00:55.404Z,99933.63
2023-03-28T23:03:23.272Z,99933.78
2023-03-28T23:05:51.926Z,99943.34
2023-03-28T23:08:20.433Z,99948.34
2023-03-28T23:10:48.591Z,99955.75
2023-03-28T23:13:16.818Z,99963.75
2023-03-28T23:15:44.966Z,99963.47
2023-03-28T23:18:13.001Z,99979.59
2023-03-28T23:20:41.295Z,99983.66
2023-03-28T23:23:09.885Z,99977.75
2023-03-28T23:25:39.218Z,99990.94
2023-03-28T23:28:07.422Z,99993.16
2023-03-28T23:30:35.730Z,99994.84
2023-03-28T23:33:04.334Z,100000.25
2023-03-28T23:35:32.760Z,100012.75
2023-03-28T23:38:00.874Z,100016.09
2023-03-28T23:40:29.226Z,100022.44
2023-03-28T23:42:57.516Z,100014.22
2023-03-28T23:45:26.077Z,100024.66
2023-03-28T23:47:54.130Z,100028.94
2023-03-28T23:50:22.456Z,100026.63
2023-03-28T23:52:50.440Z,100025.94
2023-03-28T23:55:18.386Z,100038.88
2023-03-28T23:57:47.365Z,100039.47
